NCAR-RAP Real-Time Weather Data

Output produced by METARs form (23 June 2021  08:13 UTC)
found at http://weather.rap.ucar.edu/surface/
 
CYEN 230800Z AUTO 21012G19KT 9SM BKN140 OVC160 20/09 A2954 RMK SLP997 DENSITY ALT 3400FT
CYEN 230700Z AUTO 21009G15KT 9SM SCT120 BKN150 BKN170 20/10 A2954 RMK SLP000 DENSITY ALT 3400FT
CYEN 230600Z AUTO 28003KT 190V300 9SM FEW120 BKN140 OVC160 19/11 A2957 RMK SLP010 DENSITY ALT 3300FT
CYEN 230500Z AUTO 25005KT 9SM BKN120 OVC150 20/11 A2958 RMK SLP015 DENSITY ALT 3300FT
CYEN 230400Z AUTO 20008KT 9SM FEW140 20/11 A2959 RMK SLP018 DENSITY ALT 3300FT
CYEN 230300Z AUTO 20011KT 9SM CLR 23/10 A2958 RMK SLP016 DENSITY ALT 3700FT
CYEN 230200Z AUTO 19008KT 9SM FEW220 25/11 A2958 RMK SLP016 DENSITY ALT 3900FT
CYEN 230100Z AUTO 18008KT 9SM CLR 26/12 A2958 RMK SLP018 DENSITY ALT 4000FT
CYEN 230000Z AUTO 21009KT 9SM CLR 29/08 A2960 RMK SLP024 DENSITY ALT 4300FT
CYEN 222300Z AUTO 24011G16KT 9SM CLR 29/06 A2962 RMK SLP031 DENSITY ALT 4300FT
CYEN 222200Z AUTO 24009G15KT 9SM CLR 29/06 A2965 RMK SLP041 DENSITY ALT 4300FT
CYEN 222100Z AUTO 24009G15KT 9SM CLR 28/07 A2967 RMK SLP048 DENSITY ALT 4200FT
 
 
CWWF 230800Z AUTO 18007KT 16/10 RMK AO1 SLP995 T01630099 58011
CWWF 230700Z AUTO 07007KT 18/12 RMK AO1 SLP004 T01780122 55007
CWWF 230600Z AUTO 15006KT 18/12 RMK AO1 SLP003 T01760122 58009
CWWF 230500Z AUTO 17005KT 19/14 RMK AO1 SLP008 T01870135 58007
CWWF 230400Z AUTO 18003KT 20/13 RMK AO1 SLP013 T02040126 50000
CWWF 230300Z AUTO 29004KT 25/09 RMK AO1 SLP012 T02500092 56004
CWWF 230200Z AUTO 28004KT 27/09 RMK AO1 SLP015 T02650090 55005
CWWF 230100Z AUTO 26003KT 28/07 RMK AO1 SLP014 T02790072 56015
CWWF 230000Z AUTO 29006KT 29/05 RMK AO1 SLP021 T02860049 56017
CWWF 222300Z AUTO 26007KT 30/02 RMK AO1 SLP023 T03020024 57021
CWWF 222200Z AUTO 24010G17KT 30/03 RMK AO1 PK WND 26017/2114 SLP031 T02970031 58019
CWWF 222100Z AUTO 26007KT 29/03 RMK AO1 SLP038 T02940033 58018